Time;durP1;ratioP1;P1;durP2;ratioP2;P2;SDS_P1;SDS_P2;PMS_P1;PMS_P2;Temp;Humidity;BMP_temperature;BMP_pressure;BME280_temperature;BME280_humidity;BME280_pressure;Samples;Min_cycle;Max_cycle;Signal;HPM_P1;HPM_P2
2023/06/13 00:01:14;;;;;;;6.65;4.30;;;17.80;67.20;;;;;;5068629;28;20890;-89
2023/06/13 00:03:40;;;;;;;4.40;3.83;;;18.10;69.00;;;;;;5068468;28;20820;-90
2023/06/13 00:06:07;;;;;;;5.57;3.80;;;17.90;69.90;;;;;;5067998;28;20402;-91
2023/06/13 00:08:33;;;;;;;6.20;3.75;;;17.90;73.50;;;;;;5069504;28;20896;-89
2023/06/13 00:10:59;;;;;;;5.43;3.83;;;17.70;77.40;;;;;;5068497;28;20500;-90
2023/06/13 00:13:25;;;;;;;5.80;4.10;;;17.70;75.00;;;;;;5068579;28;20437;-90
2023/06/13 00:15:56;;;;;;;6.15;4.00;;;17.70;76.50;;;;;;5085304;28;20456;-91
2023/06/13 00:18:22;;;;;;;6.63;4.30;;;17.90;76.80;;;;;;5068748;28;20390;-89
2023/06/13 00:20:49;;;;;;;5.97;4.00;;;17.60;76.10;;;;;;5085772;28;20897;-89
2023/06/13 00:23:15;;;;;;;6.43;3.92;;;17.50;78.30;;;;;;5068480;28;20547;-91
2023/06/13 00:25:41;;;;;;;5.72;3.97;;;17.50;78.20;;;;;;5069264;28;20788;-91
2023/06/13 00:28:07;;;;;;;7.43;4.47;;;17.50;82.00;;;;;;5067975;28;20406;-90
2023/06/13 00:30:33;;;;;;;6.60;3.80;;;17.40;77.10;;;;;;5085563;28;20796;-90
2023/06/13 00:32:59;;;;;;;4.80;3.90;;;17.30;79.60;;;;;;5067858;28;20398;-90
2023/06/13 00:35:25;;;;;;;5.20;3.70;;;17.30;77.40;;;;;;5085667;28;20417;-90
2023/06/13 00:37:54;;;;;;;5.67;3.70;;;17.30;77.50;;;;;;5085380;28;20410;-90
2023/06/13 00:40:24;;;;;;;6.10;3.67;;;17.20;81.30;;;;;;5085305;28;20892;-91
2023/06/13 00:42:53;;;;;;;5.95;3.90;;;17.20;81.80;;;;;;5085182;28;20406;-89
2023/06/13 00:45:24;;;;;;;6.97;3.70;;;17.10;84.40;;;;;;5068192;28;20406;-90
2023/06/13 00:47:58;;;;;;;5.70;3.75;;;17.10;82.00;;;;;;5068629;28;20421;-90
2023/06/13 00:50:27;;;;;;;5.38;3.67;;;17.10;83.70;;;;;;5080545;28;20468;-90
2023/06/13 00:52:57;;;;;;;4.90;3.38;;;17.20;84.00;;;;;;5085646;28;20783;-89
2023/06/13 00:55:26;;;;;;;5.25;3.95;;;17.00;86.80;;;;;;5086971;28;20409;-90
2023/06/13 00:57:55;;;;;;;4.47;3.70;;;17.00;87.40;;;;;;5067790;28;20410;-89
2023/06/13 01:00:30;;;;;;;5.70;3.47;;;16.90;84.20;;;;;;5085695;28;20397;-89
2023/06/13 01:02:58;;;;;;;5.72;3.63;;;16.90;84.80;;;;;;5084871;28;20445;-90
2023/06/13 01:05:28;;;;;;;5.22;3.40;;;16.90;89.70;;;;;;5068837;28;20417;-90
2023/06/13 01:08:10;;;;;;;4.22;3.08;;;16.80;87.90;;;;;;5068013;28;20421;-90
2023/06/13 01:10:40;;;;;;;6.53;3.30;;;16.80;89.40;;;;;;5085389;28;20916;-89
2023/06/13 01:13:16;;;;;;;5.22;3.28;;;16.70;91.20;;;;;;5068117;28;20425;-90
2023/06/13 01:16:01;;;;;;;5.05;3.55;;;16.70;92.40;;;;;;5067738;28;20410;-90
2023/06/13 01:18:30;;;;;;;6.28;3.50;;;16.70;90.80;;;;;;5070377;28;20441;-89
2023/06/13 01:21:00;;;;;;;5.43;3.20;;;16.70;90.40;;;;;;5088717;28;20402;-91
2023/06/13 01:23:40;;;;;;;4.10;3.28;;;16.60;91.70;;;;;;5071916;28;20437;-90
2023/06/13 01:26:34;;;;;;;6.10;3.28;;;16.50;92.20;;;;;;5072061;28;20414;-90
2023/06/13 01:29:01;;;;;;;4.03;3.17;;;16.50;92.70;;;;;;5068625;28;20775;-90
2023/06/13 01:31:28;;;;;;;5.63;3.83;;;16.50;93.60;;;;;;5069027;28;20435;-90
2023/06/13 01:33:54;;;;;;;5.18;3.30;;;16.70;93.00;;;;;;5068494;28;20494;-90
2023/06/13 01:36:20;;;;;;;6.15;3.53;;;16.30;93.60;;;;;;5051396;28;20416;-90
2023/06/13 01:38:47;;;;;;;4.90;3.30;;;16.30;91.90;;;;;;5068620;28;20423;-90
2023/06/13 01:41:12;;;;;;;6.82;3.47;;;16.30;93.50;;;;;;5068222;28;21166;-90
2023/06/13 01:43:38;;;;;;;5.20;3.40;;;16.60;95.00;;;;;;5051841;28;20515;-90
2023/06/13 01:46:15;;;;;;;4.57;3.45;;;16.40;93.20;;;;;;5067812;28;20436;-90
2023/06/13 01:49:16;;;;;;;4.78;3.45;;;16.20;93.90;;;;;;5051879;28;20408;-90
2023/06/13 01:52:13;;;;;;;4.80;2.97;;;16.20;95.60;;;;;;5068335;28;20459;-90
2023/06/13 01:54:45;;;;;;;4.88;3.40;;;16.20;94.50;;;;;;5051206;28;20987;-90
2023/06/13 01:57:16;;;;;;;4.82;3.10;;;16.40;96.40;;;;;;5051765;28;20444;-90
2023/06/13 01:59:43;;;;;;;5.22;3.10;;;16.10;95.90;;;;;;5050903;28;20530;-89
2023/06/13 02:02:10;;;;;;;5.57;3.35;;;16.20;96.10;;;;;;5068138;28;20542;-91
2023/06/13 02:04:41;;;;;;;3.40;3.00;;;16.40;96.50;;;;;;5051206;28;20476;-90
2023/06/13 02:07:06;;;;;;;4.68;3.10;;;16.00;97.60;;;;;;5051120;28;20464;-92
2023/06/13 02:09:32;;;;;;;4.60;3.05;;;16.00;95.10;;;;;;5068420;28;20408;-90
2023/06/13 02:11:57;;;;;;;3.50;3.03;;;16.00;97.10;;;;;;5051196;28;20400;-90
2023/06/13 02:14:23;;;;;;;4.78;3.00;;;16.00;98.60;;;;;;5067575;28;20953;-90
2023/06/13 02:16:49;;;;;;;5.60;3.30;;;15.90;97.10;;;;;;5067473;28;20404;-93
2023/06/13 02:19:15;;;;;;;5.30;3.20;;;15.90;98.40;;;;;;5051140;28;20423;-89
2023/06/13 02:21:45;;;;;;;4.10;3.03;;;15.80;97.50;;;;;;5067375;28;20414;-90
2023/06/13 02:24:14;;;;;;;4.78;3.03;;;15.80;97.70;;;;;;5050708;28;20821;-88
2023/06/13 02:26:41;;;;;;;6.38;3.63;;;15.70;98.30;;;;;;5053715;28;20439;-90
2023/06/13 02:29:07;;;;;;;5.97;3.10;;;16.00;99.10;;;;;;5073450;28;21367;-89
2023/06/13 02:31:38;;;;;;;4.97;3.58;;;15.60;98.90;;;;;;5074641;28;20443;-91
2023/06/13 02:34:04;;;;;;;5.72;3.50;;;15.60;99.10;;;;;;5090809;28;20412;-90
2023/06/13 02:36:30;;;;;;;7.72;3.15;;;15.60;99.20;;;;;;5090906;28;20450;-89
2023/06/13 02:38:55;;;;;;;5.18;3.20;;;15.50;99.60;;;;;;5090557;28;20828;-90
2023/06/13 02:41:21;;;;;;;6.60;3.17;;;15.50;99.70;;;;;;5090103;28;20755;-89
2023/06/13 02:43:47;;;;;;;5.35;3.33;;;15.70;99.20;;;;;;5107754;28;20417;-89
2023/06/13 02:46:12;;;;;;;6.13;3.50;;;16.10;99.90;;;;;;5090369;28;20429;-90
2023/06/13 02:48:38;;;;;;;5.65;3.70;;;15.40;99.90;;;;;;5090643;28;20491;-90
2023/06/13 02:51:07;;;;;;;6.23;3.70;;;15.40;99.90;;;;;;5073078;28;20451;-90
2023/06/13 02:53:33;;;;;;;7.25;3.42;;;15.40;99.90;;;;;;5090500;28;20454;-89
2023/06/13 02:55:59;;;;;;;5.40;3.55;;;15.20;99.90;;;;;;5089897;28;20915;-89
2023/06/13 02:58:24;;;;;;;6.82;4.00;;;15.20;99.90;;;;;;5073230;28;20849;-89
2023/06/13 03:00:50;;;;;;;6.13;3.90;;;15.20;99.90;;;;;;5090053;28;20412;-90
2023/06/13 03:03:18;;;;;;;6.13;3.72;;;15.10;99.90;;;;;;5123678;27;20468;-89
2023/06/13 03:05:56;;;;;;;5.75;4.20;;;15.10;99.90;;;;;;5073278;28;20400;-88
2023/06/13 03:08:25;;;;;;;6.23;3.90;;;15.00;99.90;;;;;;5070836;28;20458;-90
2023/06/13 03:10:50;;;;;;;5.40;3.77;;;15.00;99.90;;;;;;5089998;28;20409;-89
2023/06/13 03:13:17;;;;;;;6.90;3.95;;;15.00;99.90;;;;;;5123728;27;20755;-90
2023/06/13 03:15:45;;;;;;;6.57;4.15;;;14.80;99.90;;;;;;5123639;27;20404;-89
2023/06/13 03:18:11;;;;;;;6.68;3.97;;;14.70;99.90;;;;;;5090045;28;20415;-89
2023/06/13 03:20:37;;;;;;;5.65;4.18;;;14.80;99.90;;;;;;5072852;28;20488;-90
2023/06/13 03:23:03;;;;;;;6.97;4.50;;;14.60;99.90;;;;;;5106421;28;20519;-90
2023/06/13 03:25:32;;;;;;;7.47;4.25;;;14.50;99.90;;;;;;5072149;28;20475;-89
2023/06/13 03:27:57;;;;;;;9.50;4.60;;;14.90;99.90;;;;;;5089354;28;20474;-89
2023/06/13 03:30:23;;;;;;;6.63;4.60;;;14.40;99.90;;;;;;5089536;28;20412;-89
2023/06/13 03:32:54;;;;;;;8.45;5.32;;;14.50;99.90;;;;;;5072632;28;20488;-90
2023/06/13 03:35:20;;;;;;;9.40;5.13;;;14.30;99.90;;;;;;5072350;28;20457;-89
2023/06/13 03:37:46;;;;;;;6.23;5.03;;;14.30;99.90;;;;;;5072048;28;20401;-89
2023/06/13 03:40:12;;;;;;;7.10;5.00;;;14.30;99.90;;;;;;5072353;28;20479;-89
2023/06/13 03:42:37;;;;;;;6.35;5.05;;;14.20;99.90;;;;;;5072460;28;20417;-89
2023/06/13 03:45:03;;;;;;;7.60;4.67;;;14.20;99.90;;;;;;5089116;28;20485;-89
2023/06/13 03:47:28;;;;;;;7.88;5.10;;;14.10;99.90;;;;;;5071820;28;20491;-89
2023/06/13 03:49:54;;;;;;;8.73;5.13;;;14.10;99.90;;;;;;5088921;28;20754;-89
2023/06/13 03:52:20;;;;;;;5.72;5.07;;;14.20;99.90;;;;;;5089009;28;20495;-89
2023/06/13 03:54:45;;;;;;;6.10;4.60;;;14.10;99.90;;;;;;5089087;28;20946;-89
2023/06/13 03:57:12;;;;;;;6.68;4.90;;;14.10;99.90;;;;;;5072047;28;20417;-89
2023/06/13 03:59:38;;;;;;;5.40;4.47;;;14.10;99.90;;;;;;5105681;28;20404;-90
2023/06/13 04:02:04;;;;;;;9.38;5.03;;;14.20;99.90;;;;;;5088922;28;20888;-89
2023/06/13 04:04:29;;;;;;;5.80;4.57;;;14.20;99.90;;;;;;5088695;28;20870;-89
2023/06/13 04:06:55;;;;;;;8.05;4.72;;;14.20;99.90;;;;;;5072157;28;20925;-90
2023/06/13 04:09:22;;;;;;;5.87;4.43;;;14.50;99.90;;;;;;5088569;28;20560;-89
2023/06/13 04:11:48;;;;;;;5.72;4.93;;;14.50;99.90;;;;;;5071906;28;20411;-90
2023/06/13 04:14:13;;;;;;;5.93;4.40;;;14.30;99.90;;;;;;5071300;28;20400;-89
2023/06/13 04:16:39;;;;;;;6.10;4.68;;;14.40;99.90;;;;;;5071609;28;20525;-89
2023/06/13 04:19:05;;;;;;;7.13;4.63;;;14.40;99.90;;;;;;5088957;28;20400;-89
2023/06/13 04:21:31;;;;;;;6.95;4.28;;;14.50;99.90;;;;;;5088567;28;20404;-89
2023/06/13 04:23:56;;;;;;;7.40;4.53;;;14.60;99.90;;;;;;5088756;28;20838;-90
2023/06/13 04:26:23;;;;;;;6.30;4.40;;;14.60;99.90;;;;;;5087943;28;20405;-89
2023/06/13 04:28:50;;;;;;;5.50;4.28;;;14.80;99.90;;;;;;5071762;28;20436;-89
2023/06/13 04:31:17;;;;;;;7.20;4.43;;;14.90;99.90;;;;;;5071242;28;20437;-90
2023/06/13 04:33:44;;;;;;;6.53;4.10;;;15.00;99.90;;;;;;5071749;28;20728;-90
2023/06/13 04:36:13;;;;;;;8.35;4.35;;;15.10;99.90;;;;;;5071842;28;20766;-88
2023/06/13 04:38:39;;;;;;;6.43;3.97;;;15.40;99.90;;;;;;5087980;28;20396;-88
2023/06/13 04:41:13;;;;;;;6.63;4.03;;;15.30;99.90;;;;;;5071574;28;20937;-89
2023/06/13 04:43:41;;;;;;;7.38;4.15;;;15.60;99.90;;;;;;5087616;28;20434;-88
2023/06/13 04:46:07;;;;;;;5.95;3.92;;;15.60;99.90;;;;;;5071449;28;20432;-89
2023/06/13 04:48:35;;;;;;;5.63;3.90;;;15.70;99.90;;;;;;5071044;28;20404;-89
2023/06/13 04:51:02;;;;;;;5.80;3.90;;;16.20;99.90;;;;;;5122307;28;20416;-90
2023/06/13 04:53:29;;;;;;;6.53;4.13;;;16.00;99.90;;;;;;5075931;28;20416;-89
2023/06/13 04:55:55;;;;;;;5.57;3.80;;;16.10;99.90;;;;;;5092352;28;20464;-88
2023/06/13 04:58:23;;;;;;;5.95;3.80;;;16.30;99.90;;;;;;5092323;28;20435;-88
2023/06/13 05:00:50;;;;;;;5.93;3.90;;;16.40;99.90;;;;;;5091801;28;20396;-90
2023/06/13 05:03:20;;;;;;;5.25;3.90;;;16.50;99.90;;;;;;5126266;27;20840;-89
2023/06/13 05:05:46;;;;;;;5.28;3.97;;;16.90;99.90;;;;;;5091954;28;20393;-90
2023/06/13 05:08:14;;;;;;;5.68;3.80;;;16.80;99.90;;;;;;5075356;28;20410;-89
2023/06/13 05:10:43;;;;;;;6.32;3.88;;;17.00;99.90;;;;;;5075377;28;20421;-89
2023/06/13 05:13:09;;;;;;;5.68;3.72;;;17.10;99.90;;;;;;5092013;28;20891;-89
2023/06/13 05:15:36;;;;;;;8.20;3.50;;;17.20;99.90;;;;;;5075498;28;20404;-89
2023/06/13 05:18:06;;;;;;;6.03;4.10;;;17.40;97.60;;;;;;5091482;28;20557;-90
2023/06/13 05:20:35;;;;;;;4.82;3.80;;;17.50;95.60;;;;;;5126541;27;20404;-89
2023/06/13 05:23:01;;;;;;;6.57;4.30;;;17.60;94.10;;;;;;5091705;28;20436;-90
2023/06/13 05:25:27;;;;;;;5.50;3.80;;;18.10;93.30;;;;;;5075132;28;20404;-89
2023/06/13 05:27:53;;;;;;;6.05;3.70;;;17.90;91.50;;;;;;5074654;28;20431;-90
2023/06/13 05:30:20;;;;;;;6.00;4.05;;;17.90;91.90;;;;;;5074696;28;20419;-89
2023/06/13 05:32:46;;;;;;;6.28;4.00;;;18.00;92.20;;;;;;5091809;28;20392;-90
2023/06/13 05:35:12;;;;;;;5.70;3.90;;;18.10;91.60;;;;;;5125632;27;20400;-89
2023/06/13 05:37:38;;;;;;;6.27;3.90;;;18.20;91.70;;;;;;5074876;28;20502;-90
2023/06/13 05:40:10;;;;;;;5.80;3.60;;;18.30;90.80;;;;;;5091518;28;20451;-89
2023/06/13 05:42:37;;;;;;;5.13;3.70;;;18.40;89.50;;;;;;5074509;28;20412;-91
2023/06/13 05:45:07;;;;;;;4.50;3.70;;;18.50;88.80;;;;;;5074315;28;20524;-89
2023/06/13 05:47:33;;;;;;;5.88;3.92;;;18.60;91.60;;;;;;5091109;28;20447;-90
2023/06/13 05:49:59;;;;;;;4.60;3.77;;;18.70;87.50;;;;;;5091993;28;20438;-89
2023/06/13 05:52:26;;;;;;;8.02;3.83;;;18.80;86.80;;;;;;5074138;28;20407;-91
2023/06/13 05:54:52;;;;;;;5.93;3.70;;;19.00;84.50;;;;;;5074686;28;20400;-88
2023/06/13 05:57:17;;;;;;;6.65;3.53;;;19.10;78.90;;;;;;5073765;28;20403;-88
2023/06/13 05:59:43;;;;;;;3.97;3.27;;;19.20;72.60;;;;;;5091722;28;20990;-90
2023/06/13 06:02:10;;;;;;;6.80;3.38;;;19.30;70.50;;;;;;5090966;28;20392;-90
2023/06/13 06:04:36;;;;;;;4.47;3.30;;;19.50;70.10;;;;;;5073435;28;20443;-90
2023/06/13 06:07:02;;;;;;;4.60;2.90;;;19.70;68.40;;;;;;5074263;28;20902;-88
2023/06/13 06:09:28;;;;;;;5.40;3.33;;;19.70;61.50;;;;;;5073573;28;20400;-89
2023/06/13 06:11:54;;;;;;;5.50;2.95;;;19.80;62.80;;;;;;5125017;27;20393;-89
2023/06/13 06:14:20;;;;;;;5.15;3.08;;;19.90;61.30;;;;;;5073823;28;20505;-89
2023/06/13 06:16:46;;;;;;;4.10;2.80;;;20.00;57.00;;;;;;5074008;28;20491;-88
2023/06/13 06:19:11;;;;;;;4.17;2.80;;;20.20;57.50;;;;;;5073510;28;20499;-91
2023/06/13 06:21:37;;;;;;;3.20;2.47;;;20.30;57.00;;;;;;5090778;28;20744;-89
2023/06/13 06:24:02;;;;;;;7.13;3.15;;;20.40;54.50;;;;;;5107560;28;20518;-90
2023/06/13 06:26:28;;;;;;;5.43;2.57;;;20.50;55.00;;;;;;5073302;28;21058;-90
2023/06/13 06:28:54;;;;;;;4.32;2.75;;;20.60;56.80;;;;;;5090634;28;20899;-90
2023/06/13 06:31:19;;;;;;;6.50;2.87;;;20.80;56.20;;;;;;5073045;28;20396;-90
2023/06/13 06:33:45;;;;;;;4.68;2.70;;;21.00;55.30;;;;;;5073995;28;20411;-90
2023/06/13 06:36:11;;;;;;;5.35;2.30;;;21.00;55.20;;;;;;5106857;28;20400;-90
2023/06/13 06:38:37;;;;;;;5.22;2.85;;;21.10;53.60;;;;;;5107410;28;20491;-90
2023/06/13 06:41:02;;;;;;;5.57;2.60;;;21.40;53.50;;;;;;5072839;28;20404;-91
2023/06/13 06:43:28;;;;;;;4.15;2.30;;;21.40;52.40;;;;;;5090264;28;20428;-88
2023/06/13 06:45:55;;;;;;;4.40;2.07;;;21.60;51.40;;;;;;5089864;28;20385;-89
2023/06/13 06:48:20;;;;;;;4.47;2.33;;;21.70;50.20;;;;;;5089916;28;20418;-91
2023/06/13 06:50:46;;;;;;;4.13;2.27;;;21.90;50.80;;;;;;5090424;28;20491;-91
2023/06/13 06:53:11;;;;;;;4.63;2.22;;;21.70;51.70;;;;;;5089825;28;20396;-89
2023/06/13 06:55:37;;;;;;;4.47;2.00;;;22.20;51.80;;;;;;5090127;28;20517;-88
2023/06/13 06:58:03;;;;;;;3.77;2.07;;;21.90;51.40;;;;;;5089599;28;20416;-89
2023/06/13 07:00:28;;;;;;;4.25;1.70;;;22.10;51.60;;;;;;5089900;28;20767;-89
2023/06/13 07:02:57;;;;;;;4.40;2.30;;;22.30;51.30;;;;;;5090512;28;20396;-90
2023/06/13 07:05:22;;;;;;;4.27;1.97;;;22.30;51.70;;;;;;5073075;28;20806;-90
2023/06/13 07:07:48;;;;;;;5.00;2.42;;;22.40;49.40;;;;;;5089938;28;20399;-89
2023/06/13 07:10:14;;;;;;;4.87;2.30;;;22.80;49.50;;;;;;5089293;28;20416;-89
2023/06/13 07:12:39;;;;;;;4.05;2.10;;;22.60;52.70;;;;;;5124303;27;20446;-90
2023/06/13 07:15:06;;;;;;;4.97;2.13;;;22.90;50.90;;;;;;5122710;27;20404;-90
2023/06/13 07:17:32;;;;;;;3.55;1.92;;;22.80;48.20;;;;;;5089864;28;20400;-90
2023/06/13 07:19:58;;;;;;;3.10;2.10;;;22.90;49.20;;;;;;5106179;28;20507;-89
2023/06/13 07:22:23;;;;;;;4.60;2.07;;;22.90;48.90;;;;;;5089681;28;20492;-90
2023/06/13 07:24:49;;;;;;;4.10;1.90;;;23.00;47.00;;;;;;5089533;28;20428;-89
2023/06/13 07:27:20;;;;;;;3.33;1.70;;;23.10;48.60;;;;;;5071991;28;20428;-89
2023/06/13 07:29:46;;;;;;;4.30;1.95;;;23.20;48.20;;;;;;5089665;28;20404;-90
2023/06/13 07:32:12;;;;;;;5.55;1.80;;;23.20;46.90;;;;;;5071843;28;20489;-89
2023/06/13 07:34:38;;;;;;;5.00;1.60;;;23.30;47.20;;;;;;5089373;28;20396;-89
2023/06/13 07:37:03;;;;;;;2.93;1.50;;;23.40;42.50;;;;;;5089008;28;20461;-90
2023/06/13 07:39:29;;;;;;;2.95;1.50;;;23.40;41.80;;;;;;5089098;28;20426;-88
2023/06/13 07:41:55;;;;;;;2.93;1.37;;;23.60;43.00;;;;;;5105890;28;20408;-88
2023/06/13 07:44:21;;;;;;;3.08;1.30;;;23.80;41.10;;;;;;5088619;28;20832;-89
2023/06/13 07:46:47;;;;;;;3.00;1.27;;;23.80;39.40;;;;;;5072687;28;20400;-88
2023/06/13 07:49:13;;;;;;;3.77;1.40;;;23.80;39.20;;;;;;5088762;28;20828;-90
2023/06/13 07:51:40;;;;;;;2.50;1.20;;;24.10;39.40;;;;;;5072302;28;20407;-90
2023/06/13 07:54:06;;;;;;;3.38;1.10;;;23.90;40.70;;;;;;5071449;28;20479;-89
2023/06/13 07:56:32;;;;;;;3.90;1.10;;;23.90;38.80;;;;;;5072171;28;20938;-90
2023/06/13 07:58:58;;;;;;;2.67;1.15;;;24.10;39.80;;;;;;5088782;28;20412;-88
2023/06/13 08:01:25;;;;;;;2.90;1.38;;;24.30;39.20;;;;;;5071846;28;20466;-90
2023/06/13 08:03:50;;;;;;;2.40;1.58;;;24.30;36.30;;;;;;5072136;28;20823;-88
2023/06/13 08:06:16;;;;;;;3.17;1.33;;;24.40;36.10;;;;;;5071793;28;20407;-88
2023/06/13 08:08:42;;;;;;;3.63;1.40;;;24.40;36.70;;;;;;5072062;28;20412;-89
2023/06/13 08:11:07;;;;;;;2.88;1.58;;;24.50;36.90;;;;;;5088081;28;20408;-89
2023/06/13 08:13:33;;;;;;;3.77;1.57;;;24.70;36.50;;;;;;5088949;28;20409;-89
2023/06/13 08:16:01;;;;;;;2.92;1.50;;;24.60;36.10;;;;;;5088433;28;20895;-92
2023/06/13 08:18:27;;;;;;;3.17;1.52;;;24.80;36.90;;;;;;5088568;28;20759;-89
2023/06/13 08:20:52;;;;;;;3.30;1.27;;;25.00;34.60;;;;;;5088236;28;20424;-91
2023/06/13 08:23:18;;;;;;;4.37;1.60;;;24.80;35.80;;;;;;5071090;28;20511;-90
2023/06/13 08:25:44;;;;;;;4.03;1.80;;;25.10;35.40;;;;;;5105468;28;20404;-87
2023/06/13 08:28:11;;;;;;;3.83;1.80;;;24.90;37.40;;;;;;5087657;28;20400;-90
2023/06/13 08:30:37;;;;;;;3.45;1.80;;;25.40;36.50;;;;;;5088503;28;20428;-89
2023/06/13 08:33:03;;;;;;;4.68;1.92;;;25.10;39.00;;;;;;5088033;28;20849;-89
2023/06/13 08:35:29;;;;;;;4.43;2.20;;;25.20;36.00;;;;;;5071801;28;20407;-90
2023/06/13 08:37:55;;;;;;;4.30;1.90;;;25.30;35.70;;;;;;5121347;27;20487;-89
2023/06/13 08:40:21;;;;;;;3.10;2.08;;;25.40;36.80;;;;;;5087826;28;20574;-89
2023/06/13 08:42:47;;;;;;;4.23;2.07;;;25.50;36.00;;;;;;5088172;28;20400;-89
2023/06/13 08:45:13;;;;;;;4.80;2.03;;;25.60;37.70;;;;;;5087450;28;20460;-89
2023/06/13 08:47:40;;;;;;;4.38;2.10;;;25.80;36.60;;;;;;5071581;28;20415;-89
2023/06/13 08:50:07;;;;;;;3.88;2.10;;;25.80;37.20;;;;;;5087567;28;20444;-89
2023/06/13 08:52:40;;;;;;;3.60;2.10;;;25.80;37.40;;;;;;5070597;28;20400;-89
2023/06/13 08:55:15;;;;;;;4.10;2.10;;;26.00;36.60;;;;;;5087303;28;20400;-88
2023/06/13 08:57:41;;;;;;;2.75;2.20;;;26.00;37.00;;;;;;5088065;28;20454;-89
2023/06/13 09:00:11;;;;;;;3.63;2.63;;;26.00;36.60;;;;;;5070942;28;20491;-91
2023/06/13 09:02:41;;;;;;;3.90;2.20;;;26.10;37.40;;;;;;5071167;28;21088;-89
2023/06/13 09:05:07;;;;;;;3.97;2.40;;;26.20;37.90;;;;;;5071353;28;20423;-89
2023/06/13 09:07:33;;;;;;;4.63;2.38;;;26.40;37.10;;;;;;5070247;28;20478;-89
2023/06/13 09:10:00;;;;;;;5.63;2.30;;;26.40;35.30;;;;;;5088341;28;20803;-89
2023/06/13 09:12:25;;;;;;;2.92;2.25;;;26.70;37.70;;;;;;5070130;28;20408;-89
2023/06/13 09:14:52;;;;;;;4.47;2.30;;;26.80;37.10;;;;;;5070582;28;20420;-89
2023/06/13 09:17:18;;;;;;;4.30;2.30;;;26.90;36.30;;;;;;5087510;28;20942;-88
2023/06/13 09:19:44;;;;;;;3.93;2.40;;;27.00;36.50;;;;;;5087413;28;20495;-88
2023/06/13 09:22:09;;;;;;;4.97;2.40;;;27.10;35.70;;;;;;5087787;28;20759;-90
2023/06/13 09:24:36;;;;;;;3.23;2.20;;;27.20;35.70;;;;;;5070156;28;20481;-90
2023/06/13 09:27:02;;;;;;;4.13;2.53;;;27.30;37.00;;;;;;5084166;28;20421;-89
2023/06/13 09:29:35;;;;;;;3.60;2.05;;;27.30;35.90;;;;;;5066963;28;20466;-90
2023/06/13 09:32:01;;;;;;;4.10;2.40;;;27.50;35.10;;;;;;5084134;28;20935;-89
2023/06/13 09:34:30;;;;;;;4.05;2.28;;;27.50;34.40;;;;;;5083833;28;20405;-90
2023/06/13 09:36:57;;;;;;;3.22;2.08;;;27.50;34.30;;;;;;5083851;28;20746;-90
2023/06/13 09:39:24;;;;;;;3.50;2.10;;;27.40;34.30;;;;;;5069367;28;20408;-89
2023/06/13 09:41:57;;;;;;;3.08;2.17;;;27.60;35.20;;;;;;5087390;28;20411;-89
2023/06/13 09:44:24;;;;;;;3.00;2.17;;;27.40;35.20;;;;;;5087693;28;20429;-90
2023/06/13 09:46:50;;;;;;;5.00;2.08;;;27.40;35.30;;;;;;5087454;28;20426;-89
2023/06/13 09:49:17;;;;;;;4.07;2.00;;;27.60;32.90;;;;;;5071252;28;20832;-90
2023/06/13 09:51:44;;;;;;;3.60;1.90;;;27.60;33.00;;;;;;5087575;28;20398;-88
2023/06/13 09:54:10;;;;;;;3.28;1.95;;;27.70;33.20;;;;;;5087378;28;20430;-89
2023/06/13 09:56:35;;;;;;;2.40;2.00;;;28.00;34.10;;;;;;5070882;28;20912;-89
2023/06/13 09:59:02;;;;;;;3.33;1.65;;;28.00;34.60;;;;;;5087069;28;20401;-90
2023/06/13 10:01:29;;;;;;;3.80;1.65;;;28.40;34.50;;;;;;5087592;28;20764;-89
2023/06/13 10:03:55;;;;;;;2.78;1.52;;;28.30;32.00;;;;;;5070089;28;20774;-91
2023/06/13 10:06:22;;;;;;;3.17;1.73;;;28.70;33.80;;;;;;5070196;28;20493;-90
2023/06/13 10:08:48;;;;;;;5.43;2.10;;;28.70;35.60;;;;;;5070501;28;20851;-90
2023/06/13 10:11:21;;;;;;;3.30;1.33;;;28.90;34.60;;;;;;5070387;28;20414;-90
2023/06/13 10:14:02;;;;;;;2.10;1.48;;;29.10;31.30;;;;;;5070829;28;20996;-90
2023/06/13 10:16:30;;;;;;;3.23;1.40;;;29.20;30.60;;;;;;5070173;28;20823;-89
2023/06/13 10:18:58;;;;;;;3.10;1.25;;;29.20;35.00;;;;;;5070236;28;20395;-89
2023/06/13 10:21:24;;;;;;;2.58;1.20;;;29.10;35.70;;;;;;5086668;28;20540;-90
2023/06/13 10:23:51;;;;;;;2.27;1.40;;;29.10;33.30;;;;;;5087196;28;20517;-90
2023/06/13 10:26:39;;;;;;;2.78;1.27;;;29.00;34.90;;;;;;5069713;28;20426;-89
2023/06/13 10:29:21;;;;;;;3.97;1.40;;;29.10;35.60;;;;;;5066510;28;20411;-90
2023/06/13 10:32:05;;;;;;;3.53;1.33;;;29.00;35.50;;;;;;5050577;28;20933;-90
2023/06/13 10:34:40;;;;;;;4.03;1.20;;;29.10;35.10;;;;;;5049578;28;20423;-91
2023/06/13 10:37:53;;;;;;;3.97;1.25;;;29.00;38.10;;;;;;5066797;28;20411;-90
2023/06/13 10:40:43;;;;;;;2.60;0.83;;;29.20;36.40;;;;;;5066782;28;20462;-89
2023/06/13 10:43:29;;;;;;;2.40;1.23;;;29.50;37.30;;;;;;5066192;28;20438;-90
2023/06/13 10:45:59;;;;;;;2.95;1.40;;;30.00;38.80;;;;;;5066410;28;20506;-89
2023/06/13 10:48:54;;;;;;;3.38;1.50;;;30.40;33.90;;;;;;5049714;28;20890;-89
2023/06/13 10:51:26;;;;;;;3.38;1.10;;;30.90;34.40;;;;;;5064427;28;20993;-88
2023/06/13 10:54:11;;;;;;;3.17;1.13;;;31.10;36.50;;;;;;5066328;28;20477;-89
2023/06/13 10:56:39;;;;;;;4.03;1.13;;;31.50;36.50;;;;;;5049397;28;20422;-89
2023/06/13 10:59:13;;;;;;;3.80;1.10;;;31.40;33.30;;;;;;5049514;28;20404;-89
2023/06/13 11:01:40;;;;;;;3.22;1.08;;;31.60;34.30;;;;;;5049902;28;20407;-89
2023/06/13 11:04:14;;;;;;;4.75;1.17;;;31.90;31.80;;;;;;5065785;28;20841;-89
2023/06/13 11:06:49;;;;;;;5.22;1.35;;;31.90;31.20;;;;;;5049257;28;20411;-90
2023/06/13 11:09:25;;;;;;;2.50;1.00;;;31.90;34.80;;;;;;5048913;28;20404;-89
2023/06/13 11:11:57;;;;;;;3.38;1.17;;;31.90;34.50;;;;;;5065918;28;21008;-90
2023/06/13 11:14:28;;;;;;;3.83;1.20;;;31.80;32.80;;;;;;5049488;28;20766;-88
2023/06/13 11:16:55;;;;;;;3.60;1.15;;;31.70;31.90;;;;;;5065241;28;20423;-90
2023/06/13 11:19:23;;;;;;;4.38;1.00;;;31.50;32.50;;;;;;5065865;28;20438;-91
2023/06/13 11:21:58;;;;;;;2.78;1.10;;;31.40;33.50;;;;;;5048443;28;20446;-91
2023/06/13 11:24:23;;;;;;;3.00;1.00;;;31.50;33.60;;;;;;5048972;28;20446;-90
2023/06/13 11:26:50;;;;;;;5.65;1.00;;;31.70;33.80;;;;;;5053902;28;21252;-91
2023/06/13 11:29:16;;;;;;;4.03;1.20;;;31.80;33.20;;;;;;5089179;28;20401;-89
2023/06/13 11:31:42;;;;;;;3.13;1.00;;;32.30;33.60;;;;;;5072414;28;20462;-88
2023/06/13 11:34:16;;;;;;;3.17;1.13;;;32.60;33.30;;;;;;5088249;28;20408;-89
2023/06/13 11:36:43;;;;;;;4.32;1.20;;;32.70;33.30;;;;;;5072193;28;20419;-90
2023/06/13 11:39:15;;;;;;;3.58;1.00;;;32.70;31.40;;;;;;5122711;27;20408;-91
2023/06/13 11:41:43;;;;;;;3.75;1.00;;;32.90;31.30;;;;;;5089075;28;20483;-90
2023/06/13 11:44:09;;;;;;;3.97;0.93;;;33.00;31.60;;;;;;5088720;28;20466;-90
2023/06/13 11:46:41;;;;;;;3.35;1.05;;;33.00;29.80;;;;;;5088653;28;20401;-89
2023/06/13 11:49:10;;;;;;;2.47;0.70;;;33.00;29.20;;;;;;5089174;28;20393;-90
2023/06/13 11:51:37;;;;;;;3.25;0.90;;;32.60;29.40;;;;;;5088435;28;20478;-90
2023/06/13 11:54:03;;;;;;;1.92;0.88;;;32.50;30.90;;;;;;5072100;28;20404;-90
2023/06/13 11:56:30;;;;;;;3.03;0.80;;;32.20;30.10;;;;;;5071289;28;20419;-92
2023/06/13 11:58:56;;;;;;;4.55;0.75;;;32.10;31.70;;;;;;5071625;28;20479;-90
2023/06/13 12:01:25;;;;;;;3.33;0.80;;;32.20;30.70;;;;;;5070636;28;20461;-91
2023/06/13 12:03:53;;;;;;;3.70;0.88;;;32.60;32.10;;;;;;5088585;28;20497;-88
2023/06/13 12:06:19;;;;;;;3.90;0.98;;;33.00;30.90;;;;;;5071810;28;20918;-90
2023/06/13 12:08:46;;;;;;;2.92;0.82;;;33.10;31.10;;;;;;5088132;28;20400;-90
2023/06/13 12:11:13;;;;;;;2.40;0.80;;;33.30;30.90;;;;;;5088544;28;20404;-90
2023/06/13 12:13:39;;;;;;;2.80;0.87;;;33.50;29.60;;;;;;5088249;28;20393;-89
2023/06/13 12:16:08;;;;;;;3.30;0.70;;;33.60;30.10;;;;;;5122720;27;20479;-89
2023/06/13 12:18:34;;;;;;;3.90;0.80;;;33.90;31.80;;;;;;5087786;28;20976;-91
2023/06/13 12:21:00;;;;;;;4.10;1.00;;;34.30;31.90;;;;;;5105071;28;20428;-91
2023/06/13 12:23:27;;;;;;;3.67;0.80;;;34.60;30.30;;;;;;5088339;28;20922;-90
2023/06/13 12:25:53;;;;;;;2.42;0.75;;;34.80;30.30;;;;;;5087767;28;20441;-88
2023/06/13 12:28:19;;;;;;;4.40;1.00;;;35.10;29.80;;;;;;5071189;28;20477;-89
2023/06/13 12:30:49;;;;;;;3.35;0.70;;;35.10;29.60;;;;;;5087845;28;20407;-89
2023/06/13 12:33:18;;;;;;;4.67;0.90;;;35.30;30.40;;;;;;5071287;28;20405;-87
2023/06/13 12:35:57;;;;;;;3.17;0.70;;;35.30;29.60;;;;;;5088261;28;20455;-89
2023/06/13 12:38:28;;;;;;;2.30;0.98;;;35.10;28.10;;;;;;5088347;28;20431;-89
2023/06/13 12:40:54;;;;;;;2.47;0.80;;;34.60;30.00;;;;;;5088058;28;20420;-89
2023/06/13 12:43:29;;;;;;;2.42;0.70;;;34.40;30.10;;;;;;5087302;28;20396;-90
2023/06/13 12:45:57;;;;;;;3.15;0.80;;;34.40;31.20;;;;;;5088063;28;20438;-89
2023/06/13 12:48:23;;;;;;;2.47;0.73;;;34.20;31.30;;;;;;5070912;28;20396;-90
2023/06/13 12:50:49;;;;;;;5.30;0.60;;;34.40;30.70;;;;;;5087714;28;20396;-89
2023/06/13 14:31:26;;;;;;;3.03;0.90;;;34.10;34.20;;;;;;5095181;27;2037233;-88